sensor_id;sensor_type;location;lat;lon;timestamp;pressure;altitude;pressure_sealevel;temperature;humidity
40982;BME280;26708;50.304;19.028;2022-10-31T00:01:55;98718.41;;;16.02;67.95
40982;BME280;26708;50.304;19.028;2022-10-31T00:04:56;98751.53;;;16.18;68.00
40982;BME280;26708;50.304;19.028;2022-10-31T00:07:57;98739.38;;;16.08;67.80
40982;BME280;26708;50.304;19.028;2022-10-31T00:10:58;98712.41;;;15.91;67.51
40982;BME280;26708;50.304;19.028;2022-10-31T00:14:02;98669.72;;;15.65;67.72
40982;BME280;26708;50.304;19.028;2022-10-31T00:17:04;98731.59;;;15.97;67.82
40982;BME280;26708;50.304;19.028;2022-10-31T00:20:06;98718.56;;;15.84;67.87
40982;BME280;26708;50.304;19.028;2022-10-31T00:23:07;98753.41;;;16.05;68.15
40982;BME280;26708;50.304;19.028;2022-10-31T00:26:12;98705.56;;;15.67;68.26
40982;BME280;26708;50.304;19.028;2022-10-31T00:29:13;98756.13;;;15.96;68.05
40982;BME280;26708;50.304;19.028;2022-10-31T00:32:14;98745.59;;;15.95;67.91
40982;BME280;26708;50.304;19.028;2022-10-31T00:35:16;98761.41;;;15.92;68.43
40982;BME280;26708;50.304;19.028;2022-10-31T00:38:19;98751.78;;;15.92;68.29
40982;BME280;26708;50.304;19.028;2022-10-31T00:41:19;98730.00;;;15.78;68.04
40982;BME280;26708;50.304;19.028;2022-10-31T00:44:20;98734.38;;;15.76;67.97
40982;BME280;26708;50.304;19.028;2022-10-31T00:47:21;98715.22;;;15.67;68.35
40982;BME280;26708;50.304;19.028;2022-10-31T00:50:22;98758.84;;;15.81;68.16
40982;BME280;26708;50.304;19.028;2022-10-31T00:53:23;98683.94;;;15.38;68.08
40982;BME280;26708;50.304;19.028;2022-10-31T00:56:24;98567.25;;;14.63;68.06
40982;BME280;26708;50.304;19.028;2022-10-31T00:59:26;98714.53;;;15.36;67.76
40982;BME280;26708;50.304;19.028;2022-10-31T01:02:26;98628.28;;;14.84;67.73
40982;BME280;26708;50.304;19.028;2022-10-31T01:05:28;98647.41;;;14.98;67.92
40982;BME280;26708;50.304;19.028;2022-10-31T01:08:29;98698.03;;;15.17;68.33
40982;BME280;26708;50.304;19.028;2022-10-31T01:11:30;98749.44;;;15.49;68.23
40982;BME280;26708;50.304;19.028;2022-10-31T01:14:31;98707.66;;;15.12;68.38
40982;BME280;26708;50.304;19.028;2022-10-31T01:17:32;98655.38;;;14.82;68.09
40982;BME280;26708;50.304;19.028;2022-10-31T01:20:32;98649.28;;;14.75;68.27
40982;BME280;26708;50.304;19.028;2022-10-31T01:23:35;98683.28;;;14.95;67.92
40982;BME280;26708;50.304;19.028;2022-10-31T01:26:36;98693.72;;;15.01;68.50
40982;BME280;26708;50.304;19.028;2022-10-31T01:29:38;98627.50;;;14.66;68.34
40982;BME280;26708;50.304;19.028;2022-10-31T01:32:40;98760.84;;;15.43;68.74
40982;BME280;26708;50.304;19.028;2022-10-31T01:35:42;98676.31;;;14.88;68.52
40982;BME280;26708;50.304;19.028;2022-10-31T01:38:43;98632.72;;;14.64;67.89
40982;BME280;26708;50.304;19.028;2022-10-31T01:41:48;98752.19;;;15.34;67.92
40982;BME280;26708;50.304;19.028;2022-10-31T01:44:55;98726.91;;;15.12;68.49
40982;BME280;26708;50.304;19.028;2022-10-31T01:47:58;98709.47;;;15.01;68.40
40982;BME280;26708;50.304;19.028;2022-10-31T01:51:01;98675.50;;;14.74;67.84
40982;BME280;26708;50.304;19.028;2022-10-31T01:54:08;98766.22;;;15.17;68.15
40982;BME280;26708;50.304;19.028;2022-10-31T01:57:15;98668.53;;;14.70;67.90
40982;BME280;26708;50.304;19.028;2022-10-31T02:00:21;98641.50;;;14.53;68.30
40982;BME280;26708;50.304;19.028;2022-10-31T02:03:23;98650.28;;;14.49;68.27
40982;BME280;26708;50.304;19.028;2022-10-31T02:10:34;98734.81;;;15.03;68.40
40982;BME280;26708;50.304;19.028;2022-10-31T02:13:38;98716.50;;;14.93;68.43
40982;BME280;26708;50.304;19.028;2022-10-31T02:16:42;98761.00;;;15.12;68.35
40982;BME280;26708;50.304;19.028;2022-10-31T02:19:50;98747.88;;;15.11;68.40
40982;BME280;26708;50.304;19.028;2022-10-31T02:41:36;98675.59;;;14.57;67.76
40982;BME280;26708;50.304;19.028;2022-10-31T02:47:53;98639.00;;;14.24;68.13
40982;BME280;26708;50.304;19.028;2022-10-31T02:50:59;98758.44;;;14.91;67.59
40982;BME280;26708;50.304;19.028;2022-10-31T02:54:02;98766.25;;;15.00;67.55
40982;BME280;26708;50.304;19.028;2022-10-31T02:57:06;98732.28;;;14.72;68.11
40982;BME280;26708;50.304;19.028;2022-10-31T03:00:08;98666.00;;;14.37;68.26
40982;BME280;26708;50.304;19.028;2022-10-31T03:03:24;98724.44;;;14.72;68.22
40982;BME280;26708;50.304;19.028;2022-10-31T03:06:33;98772.41;;;14.93;67.80
40982;BME280;26708;50.304;19.028;2022-10-31T03:09:52;98759.34;;;14.78;68.14
40982;BME280;26708;50.304;19.028;2022-10-31T03:16:16;98784.69;;;14.81;67.76
40982;BME280;26708;50.304;19.028;2022-10-31T03:19:33;98783.81;;;14.76;67.39
40982;BME280;26708;50.304;19.028;2022-10-31T03:22:35;98776.88;;;14.67;68.30
40982;BME280;26708;50.304;19.028;2022-10-31T03:25:39;98732.41;;;14.33;67.96
40982;BME280;26708;50.304;19.028;2022-10-31T03:28:53;98782.09;;;14.61;68.04
40982;BME280;26708;50.304;19.028;2022-10-31T03:31:58;98785.63;;;14.54;68.80
40982;BME280;26708;50.304;19.028;2022-10-31T03:35:02;98701.84;;;14.00;68.51
40982;BME280;26708;50.304;19.028;2022-10-31T03:38:06;98769.06;;;14.39;68.09
40982;BME280;26708;50.304;19.028;2022-10-31T03:41:11;98758.59;;;14.21;68.17
40982;BME280;26708;50.304;19.028;2022-10-31T03:44:17;98802.22;;;14.47;68.53
40982;BME280;26708;50.304;19.028;2022-10-31T03:47:25;98766.44;;;14.34;68.17
40982;BME280;26708;50.304;19.028;2022-10-31T03:50:35;98798.72;;;14.44;68.82
40982;BME280;26708;50.304;19.028;2022-10-31T03:53:46;98739.34;;;14.08;67.98
40982;BME280;26708;50.304;19.028;2022-10-31T03:56:57;98756.00;;;14.19;68.16
40982;BME280;26708;50.304;19.028;2022-10-31T04:00:09;98762.94;;;14.23;68.17
40982;BME280;26708;50.304;19.028;2022-10-31T04:03:26;98794.38;;;14.46;67.85
40982;BME280;26708;50.304;19.028;2022-10-31T04:06:34;98817.06;;;14.45;68.29
40982;BME280;26708;50.304;19.028;2022-10-31T04:09:38;98796.13;;;14.42;68.00
40982;BME280;26708;50.304;19.028;2022-10-31T04:12:44;98777.81;;;14.23;68.10
40982;BME280;26708;50.304;19.028;2022-10-31T04:15:55;98790.00;;;14.27;68.15
40982;BME280;26708;50.304;19.028;2022-10-31T04:18:57;98787.38;;;14.25;67.86
40982;BME280;26708;50.304;19.028;2022-10-31T04:26:52;98808.34;;;14.31;68.56
40982;BME280;26708;50.304;19.028;2022-10-31T04:29:55;98756.81;;;14.00;68.43
40982;BME280;26708;50.304;19.028;2022-10-31T04:32:56;98685.28;;;13.55;67.95
40982;BME280;26708;50.304;19.028;2022-10-31T04:35:57;98699.22;;;13.51;68.37
40982;BME280;26708;50.304;19.028;2022-10-31T04:43:54;98816.22;;;14.24;67.04
40982;BME280;26708;50.304;19.028;2022-10-31T04:46:56;98814.44;;;14.20;67.89
40982;BME280;26708;50.304;19.028;2022-10-31T04:49:57;98787.38;;;14.04;67.87
40982;BME280;26708;50.304;19.028;2022-10-31T04:52:57;98809.25;;;14.18;67.87
40982;BME280;26708;50.304;19.028;2022-10-31T04:56:03;98807.47;;;14.20;67.41
40982;BME280;26708;50.304;19.028;2022-10-31T04:59:15;98698.34;;;13.47;67.43
40982;BME280;26708;50.304;19.028;2022-10-31T05:02:29;98762.91;;;13.75;67.07
40982;BME280;26708;50.304;19.028;2022-10-31T05:05:38;98807.44;;;13.92;67.13
40982;BME280;26708;50.304;19.028;2022-10-31T05:08:38;98801.31;;;13.85;67.24
40982;BME280;26708;50.304;19.028;2022-10-31T05:11:41;98817.91;;;13.92;67.78
40982;BME280;26708;50.304;19.028;2022-10-31T05:14:56;98795.19;;;13.77;67.67
40982;BME280;26708;50.304;19.028;2022-10-31T05:18:15;98724.50;;;13.35;68.11
40982;BME280;26708;50.304;19.028;2022-10-31T05:21:19;98812.66;;;13.84;67.67
40982;BME280;26708;50.304;19.028;2022-10-31T05:24:29;98815.25;;;13.83;67.91
40982;BME280;26708;50.304;19.028;2022-10-31T05:27:30;98789.94;;;13.65;68.14
40982;BME280;26708;50.304;19.028;2022-10-31T05:30:31;98825.72;;;13.81;68.02
40982;BME280;26708;50.304;19.028;2022-10-31T05:33:32;98825.72;;;13.78;67.68
40982;BME280;26708;50.304;19.028;2022-10-31T05:36:58;98817.88;;;13.72;68.12
40982;BME280;26708;50.304;19.028;2022-10-31T05:39:59;98796.91;;;13.62;67.47
40982;BME280;26708;50.304;19.028;2022-10-31T05:43:00;98817.84;;;13.66;68.08
40982;BME280;26708;50.304;19.028;2022-10-31T05:46:01;98813.47;;;13.64;67.57
40982;BME280;26708;50.304;19.028;2022-10-31T05:49:20;98693.06;;;13.02;67.51
40982;BME280;26708;50.304;19.028;2022-10-31T05:52:59;98824.84;;;13.73;67.81
40982;BME280;26708;50.304;19.028;2022-10-31T05:56:06;98789.88;;;13.44;67.63
40982;BME280;26708;50.304;19.028;2022-10-31T05:59:07;98853.66;;;13.79;67.70
40982;BME280;26708;50.304;19.028;2022-10-31T06:02:08;98851.88;;;13.80;68.14
40982;BME280;26708;50.304;19.028;2022-10-31T06:05:28;98809.97;;;13.53;68.10
40982;BME280;26708;50.304;19.028;2022-10-31T06:08:29;98797.75;;;13.46;68.38
40982;BME280;26708;50.304;19.028;2022-10-31T06:11:33;98731.38;;;13.11;67.95
40982;BME280;26708;50.304;19.028;2022-10-31T06:14:37;98863.25;;;13.85;68.04
40982;BME280;26708;50.304;19.028;2022-10-31T06:17:38;98844.91;;;13.77;67.95
40982;BME280;26708;50.304;19.028;2022-10-31T06:20:44;98752.38;;;13.27;67.56
40982;BME280;26708;50.304;19.028;2022-10-31T06:23:45;98828.31;;;13.74;67.77
40982;BME280;26708;50.304;19.028;2022-10-31T06:27:03;98864.13;;;13.94;67.77
40982;BME280;26708;50.304;19.028;2022-10-31T06:30:04;98825.72;;;13.71;68.24
40982;BME280;26708;50.304;19.028;2022-10-31T06:33:08;98863.28;;;14.00;68.30
40982;BME280;26708;50.304;19.028;2022-10-31T06:36:12;98823.09;;;13.80;68.27
40982;BME280;26708;50.304;19.028;2022-10-31T06:39:14;98866.78;;;14.11;68.27
40982;BME280;26708;50.304;19.028;2022-10-31T06:42:17;98856.31;;;14.08;67.94
40982;BME280;26708;50.304;19.028;2022-10-31T06:45:18;98863.31;;;14.21;67.42
40982;BME280;26708;50.304;19.028;2022-10-31T06:48:54;98823.16;;;14.14;67.42
40982;BME280;26708;50.304;19.028;2022-10-31T06:52:08;98876.47;;;14.49;66.70
40982;BME280;26708;50.304;19.028;2022-10-31T06:55:09;98840.66;;;14.35;67.10
40982;BME280;26708;50.304;19.028;2022-10-31T06:58:10;98813.53;;;14.12;67.33
40982;BME280;26708;50.304;19.028;2022-10-31T07:01:13;98817.06;;;14.21;67.28
40982;BME280;26708;50.304;19.028;2022-10-31T07:04:14;98769.06;;;14.00;67.29
40982;BME280;26708;50.304;19.028;2022-10-31T07:07:16;98875.56;;;14.64;67.19
40982;BME280;26708;50.304;19.028;2022-10-31T07:10:17;98882.56;;;14.77;67.20
40982;BME280;26708;50.304;19.028;2022-10-31T07:13:26;98810.94;;;14.36;67.54
40982;BME280;26708;50.304;19.028;2022-10-31T07:16:34;98889.53;;;14.88;68.07
40982;BME280;26708;50.304;19.028;2022-10-31T07:19:37;98866.84;;;14.75;68.78
40982;BME280;26708;50.304;19.028;2022-10-31T07:27:19;98889.47;;;15.13;68.72
40982;BME280;26708;50.304;19.028;2022-10-31T07:30:22;98895.56;;;15.29;68.27
40982;BME280;26708;50.304;19.028;2022-10-31T07:33:27;98892.94;;;15.44;67.90
40982;BME280;26708;50.304;19.028;2022-10-31T07:36:46;98896.34;;;15.61;67.78
40982;BME280;26708;50.304;19.028;2022-10-31T07:39:47;98876.25;;;15.60;67.45
40982;BME280;26708;50.304;19.028;2022-10-31T07:42:51;98865.66;;;15.75;67.59
40982;BME280;26708;50.304;19.028;2022-10-31T07:46:25;98895.19;;;16.14;66.87
40982;BME280;26708;50.304;19.028;2022-10-31T07:49:46;98863.69;;;16.13;66.14
40982;BME280;26708;50.304;19.028;2022-10-31T07:53:11;98853.97;;;16.22;66.07
40982;BME280;26708;50.304;19.028;2022-10-31T07:56:48;98901.91;;;16.60;65.91
40982;BME280;26708;50.304;19.028;2022-10-31T07:59:49;98900.06;;;16.71;65.90
40982;BME280;26708;50.304;19.028;2022-10-31T08:06:23;98899.00;;;16.89;65.16
40982;BME280;26708;50.304;19.028;2022-10-31T08:09:45;98902.41;;;17.03;65.05
40982;BME280;26708;50.304;19.028;2022-10-31T08:12:58;98898.81;;;17.11;65.15
40982;BME280;26708;50.304;19.028;2022-10-31T08:16:00;98845.56;;;16.87;65.48
40982;BME280;26708;50.304;19.028;2022-10-31T08:19:07;98895.09;;;17.32;65.55
40982;BME280;26708;50.304;19.028;2022-10-31T08:22:12;98897.63;;;17.44;64.90
40982;BME280;26708;50.304;19.028;2022-10-31T08:25:13;98850.34;;;17.30;64.12
40982;BME280;26708;50.304;19.028;2022-10-31T08:28:18;98896.50;;;17.64;63.94
40982;BME280;26708;50.304;19.028;2022-10-31T08:31:25;98891.13;;;17.72;63.92
40982;BME280;26708;50.304;19.028;2022-10-31T08:34:48;98861.38;;;17.62;63.78
40982;BME280;26708;50.304;19.028;2022-10-31T08:38:04;98904.03;;;17.94;63.08
40982;BME280;26708;50.304;19.028;2022-10-31T08:41:06;98908.25;;;18.04;62.86
40982;BME280;26708;50.304;19.028;2022-10-31T08:44:07;98904.63;;;18.13;62.11
40982;BME280;26708;50.304;19.028;2022-10-31T08:47:07;98873.03;;;18.10;62.46
40982;BME280;26708;50.304;19.028;2022-10-31T08:50:08;98878.22;;;18.16;62.06
40982;BME280;26708;50.304;19.028;2022-10-31T08:53:14;98898.91;;;18.44;62.04
40982;BME280;26708;50.304;19.028;2022-10-31T08:56:17;98906.66;;;18.55;61.67
40982;BME280;26708;50.304;19.028;2022-10-31T08:59:18;98861.16;;;18.42;61.06
40982;BME280;26708;50.304;19.028;2022-10-31T09:02:38;98876.75;;;18.56;61.04
40982;BME280;26708;50.304;19.028;2022-10-31T09:05:40;98873.94;;;18.68;60.50
40982;BME280;26708;50.304;19.028;2022-10-31T09:08:43;98813.84;;;18.33;60.29
40982;BME280;26708;50.304;19.028;2022-10-31T09:11:45;98916.50;;;18.97;60.54
40982;BME280;26708;50.304;19.028;2022-10-31T09:15:06;98893.63;;;18.99;59.76
40982;BME280;26708;50.304;19.028;2022-10-31T09:22:39;98872.44;;;19.03;59.33
40982;BME280;26708;50.304;19.028;2022-10-31T09:25:40;98905.59;;;19.18;59.25
40982;BME280;26708;50.304;19.028;2022-10-31T09:29:02;98790.56;;;18.58;59.05
40982;BME280;26708;50.304;19.028;2022-10-31T09:32:05;98862.78;;;19.01;59.34
40982;BME280;26708;50.304;19.028;2022-10-31T09:35:13;98858.28;;;19.06;59.29
40982;BME280;26708;50.304;19.028;2022-10-31T09:38:17;98900.88;;;19.35;59.14
40982;BME280;26708;50.304;19.028;2022-10-31T09:48:42;98894.38;;;19.53;58.63
40982;BME280;26708;50.304;19.028;2022-10-31T09:56:10;98756.63;;;18.85;58.85
40982;BME280;26708;50.304;19.028;2022-10-31T09:59:28;98915.13;;;19.71;58.70
40982;BME280;26708;50.304;19.028;2022-10-31T10:02:37;98814.75;;;19.29;58.53
40982;BME280;26708;50.304;19.028;2022-10-31T10:05:56;98894.50;;;19.88;58.03
40982;BME280;26708;50.304;19.028;2022-10-31T10:09:13;98878.75;;;19.84;57.58
40982;BME280;26708;50.304;19.028;2022-10-31T10:12:40;98901.25;;;20.03;56.91
40982;BME280;26708;50.304;19.028;2022-10-31T10:19:30;98894.78;;;20.17;56.22
40982;BME280;26708;50.304;19.028;2022-10-31T10:22:50;98889.28;;;20.26;55.64
40982;BME280;26708;50.304;19.028;2022-10-31T10:26:02;98883.09;;;20.26;55.85
40982;BME280;26708;50.304;19.028;2022-10-31T10:32:31;98889.84;;;20.40;54.67
40982;BME280;26708;50.304;19.028;2022-10-31T10:35:47;98847.03;;;20.23;54.81
40982;BME280;26708;50.304;19.028;2022-10-31T10:38:52;98880.84;;;20.47;54.85
40982;BME280;26708;50.304;19.028;2022-10-31T10:41:55;98886.00;;;20.53;54.60
40982;BME280;26708;50.304;19.028;2022-10-31T10:45:18;98877.91;;;20.59;53.77
40982;BME280;26708;50.304;19.028;2022-10-31T10:48:59;98863.16;;;20.49;53.46
40982;BME280;26708;50.304;19.028;2022-10-31T10:58:21;98835.88;;;20.47;52.50
40982;BME280;26708;50.304;19.028;2022-10-31T11:01:23;98863.47;;;20.72;52.77
40982;BME280;26708;50.304;19.028;2022-10-31T11:04:35;98865.91;;;20.80;53.04
40982;BME280;26708;50.304;19.028;2022-10-31T11:07:40;98869.25;;;20.88;52.76
40982;BME280;26708;50.304;19.028;2022-10-31T11:10:41;98881.56;;;20.90;51.72
40982;BME280;26708;50.304;19.028;2022-10-31T11:13:43;98847.38;;;20.80;51.87
40982;BME280;26708;50.304;19.028;2022-10-31T11:16:47;98804.59;;;20.63;51.56
40982;BME280;26708;50.304;19.028;2022-10-31T11:23:21;98847.03;;;20.95;52.16
40982;BME280;26708;50.304;19.028;2022-10-31T11:26:22;98855.59;;;21.04;51.95
40982;BME280;26708;50.304;19.028;2022-10-31T11:29:25;98850.41;;;21.01;51.60
40982;BME280;26708;50.304;19.028;2022-10-31T11:32:27;98849.22;;;21.11;51.64
40982;BME280;26708;50.304;19.028;2022-10-31T11:35:39;98811.00;;;20.89;52.01
40982;BME280;26708;50.304;19.028;2022-10-31T11:38:41;98848.31;;;21.12;51.97
40982;BME280;26708;50.304;19.028;2022-10-31T11:41:43;98859.69;;;21.16;51.97
40982;BME280;26708;50.304;19.028;2022-10-31T11:44:45;98760.50;;;20.63;52.25
40982;BME280;26708;50.304;19.028;2022-10-31T11:47:48;98856.00;;;21.21;52.12
40982;BME280;26708;50.304;19.028;2022-10-31T11:50:52;98853.31;;;21.24;51.90
40982;BME280;26708;50.304;19.028;2022-10-31T11:54:28;98849.72;;;21.27;51.54
40982;BME280;26708;50.304;19.028;2022-10-31T11:57:43;98853.19;;;21.27;51.72
40982;BME280;26708;50.304;19.028;2022-10-31T12:00:49;98839.94;;;21.29;51.70
40982;BME280;26708;50.304;19.028;2022-10-31T12:04:07;98831.19;;;21.25;51.98
40982;BME280;26708;50.304;19.028;2022-10-31T12:07:08;98833.72;;;21.30;51.73
40982;BME280;26708;50.304;19.028;2022-10-31T12:10:13;98783.28;;;21.02;51.26
40982;BME280;26708;50.304;19.028;2022-10-31T12:16:25;98840.50;;;21.38;51.55
40982;BME280;26708;50.304;19.028;2022-10-31T12:37:04;98825.22;;;21.48;51.56
40982;BME280;26708;50.304;19.028;2022-10-31T12:57:45;98776.38;;;21.27;51.40
40982;BME280;26708;50.304;19.028;2022-10-31T13:01:02;98771.81;;;21.32;51.40
40982;BME280;26708;50.304;19.028;2022-10-31T13:07:34;98768.31;;;21.30;51.48
40982;BME280;26708;50.304;19.028;2022-10-31T13:10:50;98817.84;;;21.59;51.46
40982;BME280;26708;50.304;19.028;2022-10-31T13:14:04;98783.09;;;21.39;51.28
40982;BME280;26708;50.304;19.028;2022-10-31T13:17:06;98816.97;;;21.58;51.74
40982;BME280;26708;50.304;19.028;2022-10-31T13:24:23;98719.72;;;21.02;51.78
40982;BME280;26708;50.304;19.028;2022-10-31T13:27:40;98818.88;;;21.53;51.84
40982;BME280;26708;50.304;19.028;2022-10-31T13:30:43;98683.22;;;20.81;51.83
40982;BME280;26708;50.304;19.028;2022-10-31T13:33:50;98731.03;;;21.07;52.08
40982;BME280;26708;50.304;19.028;2022-10-31T13:43:14;98812.41;;;21.63;52.18
40982;BME280;26708;50.304;19.028;2022-10-31T13:46:38;98775.19;;;21.37;52.11
40982;BME280;26708;50.304;19.028;2022-10-31T13:49:40;98684.81;;;20.88;52.19
40982;BME280;26708;50.304;19.028;2022-10-31T14:03:19;98690.94;;;20.90;52.31
40982;BME280;26708;50.304;19.028;2022-10-31T14:06:22;98750.84;;;21.25;51.97
40982;BME280;26708;50.304;19.028;2022-10-31T14:09:30;98743.81;;;21.24;52.12
40982;BME280;26708;50.304;19.028;2022-10-31T14:12:38;98808.22;;;21.56;52.15
40982;BME280;26708;50.304;19.028;2022-10-31T14:15:54;98771.72;;;21.35;52.15
40982;BME280;26708;50.304;19.028;2022-10-31T14:19:13;98697.25;;;20.86;52.49
40982;BME280;26708;50.304;19.028;2022-10-31T14:22:29;98748.25;;;21.23;52.23
40982;BME280;26708;50.304;19.028;2022-10-31T14:25:33;98762.22;;;21.28;52.28
40982;BME280;26708;50.304;19.028;2022-10-31T14:28:35;98782.19;;;21.40;52.31
40982;BME280;26708;50.304;19.028;2022-10-31T14:31:39;98678.75;;;20.83;52.11
40982;BME280;26708;50.304;19.028;2022-10-31T14:35:14;98794.38;;;21.45;52.64
40982;BME280;26708;50.304;19.028;2022-10-31T14:49:16;98774.81;;;21.20;52.96
40982;BME280;26708;50.304;19.028;2022-10-31T14:52:19;98785.13;;;21.29;53.14
40982;BME280;26708;50.304;19.028;2022-10-31T14:55:20;98692.34;;;20.71;53.44
40982;BME280;26708;50.304;19.028;2022-10-31T15:01:39;98750.63;;;21.02;54.05
40982;BME280;26708;50.304;19.028;2022-10-31T15:04:41;98781.97;;;21.17;53.81
40982;BME280;26708;50.304;19.028;2022-10-31T15:07:52;98783.84;;;21.13;53.96
40982;BME280;26708;50.304;19.028;2022-10-31T15:10:53;98762.16;;;20.99;54.17
40982;BME280;26708;50.304;19.028;2022-10-31T15:13:56;98733.69;;;20.75;54.38
40982;BME280;26708;50.304;19.028;2022-10-31T15:16:59;98680.88;;;20.39;54.76
40982;BME280;26708;50.304;19.028;2022-10-31T15:20:03;98688.78;;;20.40;55.48
40982;BME280;26708;50.304;19.028;2022-10-31T15:23:05;98776.53;;;20.91;55.91
40982;BME280;26708;50.304;19.028;2022-10-31T15:26:21;98632.59;;;19.97;55.30
40982;BME280;26708;50.304;19.028;2022-10-31T15:29:24;98716.16;;;20.39;56.27
40982;BME280;26708;50.304;19.028;2022-10-31T15:32:28;98764.16;;;20.58;56.36
40982;BME280;26708;50.304;19.028;2022-10-31T15:35:30;98740.69;;;20.44;56.48
40982;BME280;26708;50.304;19.028;2022-10-31T15:43:02;98687.28;;;19.95;57.26
40982;BME280;26708;50.304;19.028;2022-10-31T15:46:07;98685.78;;;19.85;57.47
40982;BME280;26708;50.304;19.028;2022-10-31T15:49:23;98681.69;;;19.71;58.01
40982;BME280;26708;50.304;19.028;2022-10-31T15:52:39;98753.81;;;20.15;58.06
40982;BME280;26708;50.304;19.028;2022-10-31T15:55:57;98730.56;;;19.91;58.24
40982;BME280;26708;50.304;19.028;2022-10-31T15:59:00;98740.25;;;19.91;58.53
40982;BME280;26708;50.304;19.028;2022-10-31T16:02:11;98796.25;;;20.09;58.81
40982;BME280;26708;50.304;19.028;2022-10-31T16:05:18;98675.38;;;19.42;58.91
40982;BME280;26708;50.304;19.028;2022-10-31T16:12:34;98771.41;;;19.78;59.43
40982;BME280;26708;50.304;19.028;2022-10-31T16:15:35;98795.91;;;19.85;59.42
40982;BME280;26708;50.304;19.028;2022-10-31T16:18:37;98749.91;;;19.55;60.11
40982;BME280;26708;50.304;19.028;2022-10-31T16:21:39;98725.88;;;19.28;59.95
40982;BME280;26708;50.304;19.028;2022-10-31T16:24:53;98791.06;;;19.65;60.45
40982;BME280;26708;50.304;19.028;2022-10-31T16:28:04;98698.31;;;18.99;61.09
40982;BME280;26708;50.304;19.028;2022-10-31T16:31:13;98736.63;;;19.19;61.17
40982;BME280;26708;50.304;19.028;2022-10-31T16:34:21;98797.59;;;19.48;61.12
40982;BME280;26708;50.304;19.028;2022-10-31T16:42:44;98809.34;;;19.35;61.25
40982;BME280;26708;50.304;19.028;2022-10-31T16:45:48;98795.44;;;19.27;61.71
40982;BME280;26708;50.304;19.028;2022-10-31T16:48:49;98794.63;;;19.24;61.67
40982;BME280;26708;50.304;19.028;2022-10-31T16:51:50;98709.50;;;18.66;61.90
40982;BME280;26708;50.304;19.028;2022-10-31T16:54:55;98708.91;;;18.52;62.14
40982;BME280;26708;50.304;19.028;2022-10-31T16:57:57;98765.41;;;18.86;62.28
40982;BME280;26708;50.304;19.028;2022-10-31T17:01:02;98794.19;;;18.98;62.59
40982;BME280;26708;50.304;19.028;2022-10-31T17:04:04;98705.72;;;18.35;62.61
40982;BME280;26708;50.304;19.028;2022-10-31T17:07:05;98777.97;;;18.73;62.66
40982;BME280;26708;50.304;19.028;2022-10-31T17:10:08;98804.13;;;18.85;62.73
40982;BME280;26708;50.304;19.028;2022-10-31T17:13:20;98811.28;;;18.80;63.00
40982;BME280;26708;50.304;19.028;2022-10-31T17:16:21;98818.38;;;18.77;63.20
40982;BME280;26708;50.304;19.028;2022-10-31T17:19:22;98774.00;;;18.50;62.83
40982;BME280;26708;50.304;19.028;2022-10-31T17:22:23;98751.34;;;18.38;62.84
40982;BME280;26708;50.304;19.028;2022-10-31T17:25:27;98784.47;;;18.54;62.93
40982;BME280;26708;50.304;19.028;2022-10-31T17:28:28;98802.84;;;18.59;63.27
40982;BME280;26708;50.304;19.028;2022-10-31T17:31:30;98773.34;;;18.36;63.30
40982;BME280;26708;50.304;19.028;2022-10-31T17:34:31;98753.53;;;18.14;63.38
40982;BME280;26708;50.304;19.028;2022-10-31T17:37:32;98727.34;;;18.03;63.46
40982;BME280;26708;50.304;19.028;2022-10-31T17:40:36;98804.06;;;18.40;63.50
40982;BME280;26708;50.304;19.028;2022-10-31T17:43:37;98813.78;;;18.38;63.99
40982;BME280;26708;50.304;19.028;2022-10-31T17:46:38;98730.25;;;17.85;63.77
40982;BME280;26708;50.304;19.028;2022-10-31T17:49:39;98813.00;;;18.28;63.99
40982;BME280;26708;50.304;19.028;2022-10-31T17:52:40;98809.53;;;18.26;64.13
40982;BME280;26708;50.304;19.028;2022-10-31T17:55:40;98804.28;;;18.23;64.30
40982;BME280;26708;50.304;19.028;2022-10-31T17:58:41;98797.34;;;18.19;64.73
40982;BME280;26708;50.304;19.028;2022-10-31T18:01:42;98803.59;;;18.14;64.22
40982;BME280;26708;50.304;19.028;2022-10-31T18:04:43;98805.41;;;18.09;64.52
40982;BME280;26708;50.304;19.028;2022-10-31T18:07:48;98783.75;;;17.90;64.31
40982;BME280;26708;50.304;19.028;2022-10-31T18:10:49;98756.84;;;17.69;64.64
40982;BME280;26708;50.304;19.028;2022-10-31T18:13:55;98801.28;;;17.93;64.70
40982;BME280;26708;50.304;19.028;2022-10-31T18:16:56;98752.56;;;17.62;64.55
40982;BME280;26708;50.304;19.028;2022-10-31T18:19:57;98782.25;;;17.73;64.60
40982;BME280;26708;50.304;19.028;2022-10-31T18:22:58;98800.59;;;17.79;65.04
40982;BME280;26708;50.304;19.028;2022-10-31T18:25:58;98789.41;;;17.63;64.90
40982;BME280;26708;50.304;19.028;2022-10-31T18:28:59;98783.34;;;17.57;65.44
40982;BME280;26708;50.304;19.028;2022-10-31T18:32:01;98773.78;;;17.53;65.09
40982;BME280;26708;50.304;19.028;2022-10-31T18:35:01;98804.28;;;17.66;65.56
40982;BME280;26708;50.304;19.028;2022-10-31T18:38:03;98789.50;;;17.56;65.51
40982;BME280;26708;50.304;19.028;2022-10-31T18:41:06;98776.59;;;17.36;65.47
40982;BME280;26708;50.304;19.028;2022-10-31T18:44:08;98802.72;;;17.53;65.62
40982;BME280;26708;50.304;19.028;2022-10-31T18:47:08;98772.19;;;17.38;65.49
40982;BME280;26708;50.304;19.028;2022-10-31T18:50:09;98771.38;;;17.33;65.43
40982;BME280;26708;50.304;19.028;2022-10-31T18:53:10;98780.13;;;17.37;65.67
40982;BME280;26708;50.304;19.028;2022-10-31T18:56:15;98776.69;;;17.29;65.85
40982;BME280;26708;50.304;19.028;2022-10-31T18:59:16;98707.94;;;16.85;65.95
40982;BME280;26708;50.304;19.028;2022-10-31T19:02:17;98754.94;;;17.12;65.94
40982;BME280;26708;50.304;19.028;2022-10-31T19:05:18;98771.50;;;17.21;65.80